sensor_id;sensor_type;location;lat;lon;timestamp;P1;durP1;ratioP1;P2;durP2;ratioP2
72891;SDS011;61032;50.782;6.818;2023-05-01T00:00:36;4.35;;;2.72;;
72891;SDS011;61032;50.782;6.818;2023-05-01T00:01:37;3.45;;;2.30;;
72891;SDS011;61032;50.782;6.818;2023-05-01T00:02:37;2.42;;;2.10;;
72891;SDS011;61032;50.782;6.818;2023-05-01T00:03:37;3.42;;;2.50;;
72891;SDS011;61032;50.782;6.818;2023-05-01T00:04:37;4.03;;;2.28;;
72891;SDS011;61032;50.782;6.818;2023-05-01T00:05:38;3.47;;;2.42;;
72891;SDS011;61032;50.782;6.818;2023-05-01T00:06:38;4.72;;;2.20;;
72891;SDS011;61032;50.782;6.818;2023-05-01T00:07:38;3.95;;;2.40;;
72891;SDS011;61032;50.782;6.818;2023-05-01T00:08:39;2.72;;;2.17;;
72891;SDS011;61032;50.782;6.818;2023-05-01T00:09:39;5.65;;;2.42;;
72891;SDS011;61032;50.782;6.818;2023-05-01T00:10:39;3.75;;;1.90;;
72891;SDS011;61032;50.782;6.818;2023-05-01T00:11:40;3.00;;;2.47;;
72891;SDS011;61032;50.782;6.818;2023-05-01T00:12:40;3.08;;;2.15;;
72891;SDS011;61032;50.782;6.818;2023-05-01T00:13:40;4.53;;;2.38;;
72891;SDS011;61032;50.782;6.818;2023-05-01T00:14:41;3.78;;;2.28;;
72891;SDS011;61032;50.782;6.818;2023-05-01T00:15:41;2.50;;;2.30;;
72891;SDS011;61032;50.782;6.818;2023-05-01T00:16:42;4.35;;;2.08;;
72891;SDS011;61032;50.782;6.818;2023-05-01T00:17:42;3.40;;;2.35;;
72891;SDS011;61032;50.782;6.818;2023-05-01T00:18:42;4.82;;;2.15;;
72891;SDS011;61032;50.782;6.818;2023-05-01T00:19:43;3.05;;;2.22;;
72891;SDS011;61032;50.782;6.818;2023-05-01T00:20:43;3.47;;;2.25;;
72891;SDS011;61032;50.782;6.818;2023-05-01T00:21:47;3.78;;;2.10;;
72891;SDS011;61032;50.782;6.818;2023-05-01T00:22:47;2.88;;;2.40;;
72891;SDS011;61032;50.782;6.818;2023-05-01T00:23:48;4.03;;;2.50;;
72891;SDS011;61032;50.782;6.818;2023-05-01T00:24:48;4.30;;;2.10;;
72891;SDS011;61032;50.782;6.818;2023-05-01T00:25:49;3.17;;;2.25;;
72891;SDS011;61032;50.782;6.818;2023-05-01T00:26:49;3.25;;;1.92;;
72891;SDS011;61032;50.782;6.818;2023-05-01T00:27:49;4.18;;;2.35;;
72891;SDS011;61032;50.782;6.818;2023-05-01T00:28:50;4.50;;;2.25;;
72891;SDS011;61032;50.782;6.818;2023-05-01T00:29:50;3.42;;;2.30;;
72891;SDS011;61032;50.782;6.818;2023-05-01T00:30:50;3.53;;;2.30;;
72891;SDS011;61032;50.782;6.818;2023-05-01T00:31:51;3.60;;;2.17;;
72891;SDS011;61032;50.782;6.818;2023-05-01T00:32:52;3.25;;;2.25;;
72891;SDS011;61032;50.782;6.818;2023-05-01T00:33:52;5.03;;;2.45;;
72891;SDS011;61032;50.782;6.818;2023-05-01T00:34:52;3.17;;;2.42;;
72891;SDS011;61032;50.782;6.818;2023-05-01T00:35:53;4.78;;;2.42;;
72891;SDS011;61032;50.782;6.818;2023-05-01T00:36:54;4.35;;;2.75;;
72891;SDS011;61032;50.782;6.818;2023-05-01T00:37:55;4.95;;;2.40;;
72891;SDS011;61032;50.782;6.818;2023-05-01T00:38:55;4.40;;;2.78;;
72891;SDS011;61032;50.782;6.818;2023-05-01T00:39:55;4.50;;;2.40;;
72891;SDS011;61032;50.782;6.818;2023-05-01T00:40:56;3.20;;;2.22;;
72891;SDS011;61032;50.782;6.818;2023-05-01T00:41:56;5.05;;;2.58;;
72891;SDS011;61032;50.782;6.818;2023-05-01T00:42:56;3.42;;;2.20;;
72891;SDS011;61032;50.782;6.818;2023-05-01T00:43:57;3.97;;;2.47;;
72891;SDS011;61032;50.782;6.818;2023-05-01T00:44:57;5.32;;;2.50;;
72891;SDS011;61032;50.782;6.818;2023-05-01T00:45:57;5.50;;;2.60;;
72891;SDS011;61032;50.782;6.818;2023-05-01T00:46:58;3.00;;;2.33;;
72891;SDS011;61032;50.782;6.818;2023-05-01T00:47:59;3.53;;;2.20;;
72891;SDS011;61032;50.782;6.818;2023-05-01T00:49:00;4.65;;;3.33;;
72891;SDS011;61032;50.782;6.818;2023-05-01T00:50:00;4.30;;;3.03;;
72891;SDS011;61032;50.782;6.818;2023-05-01T00:51:03;4.05;;;2.60;;
72891;SDS011;61032;50.782;6.818;2023-05-01T00:52:06;5.90;;;2.85;;
72891;SDS011;61032;50.782;6.818;2023-05-01T00:53:08;3.75;;;2.63;;
72891;SDS011;61032;50.782;6.818;2023-05-01T00:54:10;3.92;;;2.20;;
72891;SDS011;61032;50.782;6.818;2023-05-01T00:55:10;3.33;;;2.20;;
72891;SDS011;61032;50.782;6.818;2023-05-01T00:56:11;3.40;;;2.72;;
72891;SDS011;61032;50.782;6.818;2023-05-01T00:57:11;6.63;;;3.00;;
72891;SDS011;61032;50.782;6.818;2023-05-01T00:58:12;5.22;;;2.67;;
72891;SDS011;61032;50.782;6.818;2023-05-01T00:59:15;3.92;;;2.42;;
72891;SDS011;61032;50.782;6.818;2023-05-01T01:00:16;3.50;;;2.90;;
72891;SDS011;61032;50.782;6.818;2023-05-01T01:01:19;4.25;;;3.35;;
72891;SDS011;61032;50.782;6.818;2023-05-01T01:02:20;4.18;;;2.40;;
72891;SDS011;61032;50.782;6.818;2023-05-01T01:03:20;4.05;;;3.10;;
72891;SDS011;61032;50.782;6.818;2023-05-01T01:04:21;4.68;;;2.90;;
72891;SDS011;61032;50.782;6.818;2023-05-01T01:05:22;5.00;;;3.15;;
72891;SDS011;61032;50.782;6.818;2023-05-01T01:07:40;4.20;;;2.80;;
72891;SDS011;61032;50.782;6.818;2023-05-01T01:11:32;4.30;;;3.03;;
72891;SDS011;61032;50.782;6.818;2023-05-01T01:13:59;4.15;;;3.03;;
72891;SDS011;61032;50.782;6.818;2023-05-01T01:16:51;3.97;;;2.90;;
72891;SDS011;61032;50.782;6.818;2023-05-01T01:18:14;3.88;;;3.28;;
72891;SDS011;61032;50.782;6.818;2023-05-01T01:22:13;4.88;;;3.17;;
72891;SDS011;61032;50.782;6.818;2023-05-01T01:32:59;4.80;;;3.22;;
72891;SDS011;61032;50.782;6.818;2023-05-01T01:34:16;4.50;;;3.35;;
72891;SDS011;61032;50.782;6.818;2023-05-01T01:35:23;5.22;;;3.58;;
72891;SDS011;61032;50.782;6.818;2023-05-01T01:39:00;4.65;;;3.42;;
72891;SDS011;61032;50.782;6.818;2023-05-01T01:41:06;4.60;;;3.65;;
72891;SDS011;61032;50.782;6.818;2023-05-01T01:42:12;4.18;;;3.70;;
72891;SDS011;61032;50.782;6.818;2023-05-01T01:43:17;5.15;;;3.72;;
72891;SDS011;61032;50.782;6.818;2023-05-01T01:44:21;7.65;;;3.75;;
72891;SDS011;61032;50.782;6.818;2023-05-01T01:45:29;4.43;;;3.90;;
72891;SDS011;61032;50.782;6.818;2023-05-01T01:46:36;6.60;;;3.50;;
72891;SDS011;61032;50.782;6.818;2023-05-01T01:47:39;6.03;;;3.70;;
72891;SDS011;61032;50.782;6.818;2023-05-01T01:48:41;7.20;;;4.05;;
72891;SDS011;61032;50.782;6.818;2023-05-01T01:49:48;4.95;;;3.38;;
72891;SDS011;61032;50.782;6.818;2023-05-01T01:50:51;4.22;;;3.78;;
72891;SDS011;61032;50.782;6.818;2023-05-01T01:51:53;5.78;;;3.75;;
72891;SDS011;61032;50.782;6.818;2023-05-01T01:52:56;5.25;;;3.63;;
72891;SDS011;61032;50.782;6.818;2023-05-01T01:53:59;6.13;;;3.92;;
72891;SDS011;61032;50.782;6.818;2023-05-01T01:55:02;4.20;;;3.58;;
72891;SDS011;61032;50.782;6.818;2023-05-01T01:56:05;4.75;;;3.90;;
72891;SDS011;61032;50.782;6.818;2023-05-01T01:57:08;5.60;;;3.70;;
72891;SDS011;61032;50.782;6.818;2023-05-01T01:58:11;5.68;;;3.90;;
72891;SDS011;61032;50.782;6.818;2023-05-01T01:59:14;5.35;;;3.50;;
72891;SDS011;61032;50.782;6.818;2023-05-01T02:00:15;5.60;;;3.85;;
72891;SDS011;61032;50.782;6.818;2023-05-01T02:01:17;6.65;;;4.03;;
72891;SDS011;61032;50.782;6.818;2023-05-01T02:02:19;11.65;;;4.60;;
72891;SDS011;61032;50.782;6.818;2023-05-01T02:03:21;9.23;;;3.90;;
72891;SDS011;61032;50.782;6.818;2023-05-01T02:04:22;5.45;;;3.95;;
72891;SDS011;61032;50.782;6.818;2023-05-01T02:05:26;8.00;;;4.15;;
72891;SDS011;61032;50.782;6.818;2023-05-01T02:06:27;5.82;;;4.15;;
72891;SDS011;61032;50.782;6.818;2023-05-01T02:07:30;5.28;;;3.63;;
72891;SDS011;61032;50.782;6.818;2023-05-01T02:08:31;4.60;;;3.72;;
72891;SDS011;61032;50.782;6.818;2023-05-01T02:09:34;5.30;;;3.90;;
72891;SDS011;61032;50.782;6.818;2023-05-01T02:10:37;4.65;;;3.50;;
72891;SDS011;61032;50.782;6.818;2023-05-01T02:11:40;4.85;;;3.33;;
72891;SDS011;61032;50.782;6.818;2023-05-01T02:12:41;5.15;;;3.40;;
72891;SDS011;61032;50.782;6.818;2023-05-01T02:13:44;5.78;;;3.40;;
72891;SDS011;61032;50.782;6.818;2023-05-01T02:14:47;6.28;;;3.83;;
72891;SDS011;61032;50.782;6.818;2023-05-01T02:15:50;4.40;;;3.08;;
72891;SDS011;61032;50.782;6.818;2023-05-01T02:16:52;4.57;;;3.65;;
72891;SDS011;61032;50.782;6.818;2023-05-01T02:17:53;4.55;;;3.72;;
72891;SDS011;61032;50.782;6.818;2023-05-01T02:18:54;5.07;;;3.53;;
72891;SDS011;61032;50.782;6.818;2023-05-01T02:19:56;5.35;;;3.65;;
72891;SDS011;61032;50.782;6.818;2023-05-01T02:20:57;4.40;;;3.75;;
72891;SDS011;61032;50.782;6.818;2023-05-01T02:21:59;4.80;;;3.33;;
72891;SDS011;61032;50.782;6.818;2023-05-01T02:23:01;4.50;;;3.47;;
72891;SDS011;61032;50.782;6.818;2023-05-01T02:24:04;5.32;;;3.58;;
72891;SDS011;61032;50.782;6.818;2023-05-01T02:25:06;3.92;;;3.15;;
72891;SDS011;61032;50.782;6.818;2023-05-01T02:26:10;6.50;;;3.63;;
72891;SDS011;61032;50.782;6.818;2023-05-01T02:27:17;5.70;;;3.20;;
72891;SDS011;61032;50.782;6.818;2023-05-01T02:28:23;4.20;;;3.00;;
72891;SDS011;61032;50.782;6.818;2023-05-01T02:29:25;8.32;;;3.88;;
72891;SDS011;61032;50.782;6.818;2023-05-01T02:30:27;5.63;;;3.10;;
72891;SDS011;61032;50.782;6.818;2023-05-01T02:31:27;4.10;;;3.35;;
72891;SDS011;61032;50.782;6.818;2023-05-01T02:32:28;6.22;;;3.42;;
72891;SDS011;61032;50.782;6.818;2023-05-01T02:33:30;3.17;;;2.88;;
72891;SDS011;61032;50.782;6.818;2023-05-01T02:34:33;4.43;;;3.25;;
72891;SDS011;61032;50.782;6.818;2023-05-01T02:35:38;6.40;;;3.53;;
72891;SDS011;61032;50.782;6.818;2023-05-01T02:36:42;4.32;;;3.35;;
72891;SDS011;61032;50.782;6.818;2023-05-01T02:37:43;4.78;;;3.58;;
72891;SDS011;61032;50.782;6.818;2023-05-01T02:38:44;10.10;;;3.88;;
72891;SDS011;61032;50.782;6.818;2023-05-01T02:39:46;5.07;;;3.45;;
72891;SDS011;61032;50.782;6.818;2023-05-01T02:40:48;4.80;;;3.40;;
72891;SDS011;61032;50.782;6.818;2023-05-01T02:41:53;4.30;;;3.70;;
72891;SDS011;61032;50.782;6.818;2023-05-01T02:42:57;4.68;;;3.40;;
72891;SDS011;61032;50.782;6.818;2023-05-01T02:44:03;6.30;;;3.47;;
72891;SDS011;61032;50.782;6.818;2023-05-01T02:45:06;6.95;;;3.17;;
72891;SDS011;61032;50.782;6.818;2023-05-01T02:46:09;6.22;;;3.55;;
72891;SDS011;61032;50.782;6.818;2023-05-01T02:47:12;4.28;;;3.45;;
72891;SDS011;61032;50.782;6.818;2023-05-01T02:48:18;5.75;;;3.72;;
72891;SDS011;61032;50.782;6.818;2023-05-01T02:49:22;3.95;;;3.30;;
72891;SDS011;61032;50.782;6.818;2023-05-01T02:50:23;4.28;;;3.25;;
72891;SDS011;61032;50.782;6.818;2023-05-01T02:51:25;4.07;;;3.20;;
72891;SDS011;61032;50.782;6.818;2023-05-01T02:52:26;5.22;;;3.60;;
72891;SDS011;61032;50.782;6.818;2023-05-01T02:53:29;6.60;;;3.20;;
72891;SDS011;61032;50.782;6.818;2023-05-01T02:54:31;5.15;;;3.05;;
72891;SDS011;61032;50.782;6.818;2023-05-01T02:55:33;5.97;;;3.55;;
72891;SDS011;61032;50.782;6.818;2023-05-01T02:56:34;4.80;;;3.17;;
72891;SDS011;61032;50.782;6.818;2023-05-01T02:57:35;16.13;;;4.07;;
72891;SDS011;61032;50.782;6.818;2023-05-01T02:58:35;3.45;;;3.00;;
72891;SDS011;61032;50.782;6.818;2023-05-01T02:59:37;5.05;;;3.30;;
72891;SDS011;61032;50.782;6.818;2023-05-01T03:00:37;4.25;;;3.40;;
72891;SDS011;61032;50.782;6.818;2023-05-01T03:01:37;4.65;;;2.83;;
72891;SDS011;61032;50.782;6.818;2023-05-01T03:02:39;5.50;;;3.67;;
72891;SDS011;61032;50.782;6.818;2023-05-01T03:03:39;4.53;;;3.03;;
72891;SDS011;61032;50.782;6.818;2023-05-01T03:04:40;5.03;;;3.42;;
72891;SDS011;61032;50.782;6.818;2023-05-01T03:05:41;6.68;;;3.33;;
72891;SDS011;61032;50.782;6.818;2023-05-01T03:06:42;5.03;;;3.38;;
72891;SDS011;61032;50.782;6.818;2023-05-01T03:07:43;4.28;;;2.90;;
72891;SDS011;61032;50.782;6.818;2023-05-01T03:08:43;3.85;;;3.17;;
72891;SDS011;61032;50.782;6.818;2023-05-01T03:09:44;4.10;;;3.10;;
72891;SDS011;61032;50.782;6.818;2023-05-01T03:10:44;3.30;;;2.92;;
72891;SDS011;61032;50.782;6.818;2023-05-01T03:11:45;5.95;;;3.70;;
72891;SDS011;61032;50.782;6.818;2023-05-01T03:12:45;3.63;;;2.58;;
72891;SDS011;61032;50.782;6.818;2023-05-01T03:13:45;5.82;;;3.17;;
72891;SDS011;61032;50.782;6.818;2023-05-01T03:14:46;6.68;;;3.45;;
72891;SDS011;61032;50.782;6.818;2023-05-01T03:15:47;3.72;;;3.00;;
72891;SDS011;61032;50.782;6.818;2023-05-01T03:16:47;4.35;;;2.88;;
72891;SDS011;61032;50.782;6.818;2023-05-01T03:17:48;4.72;;;2.95;;
72891;SDS011;61032;50.782;6.818;2023-05-01T03:18:48;3.53;;;3.08;;
72891;SDS011;61032;50.782;6.818;2023-05-01T03:19:48;4.35;;;3.45;;
72891;SDS011;61032;50.782;6.818;2023-05-01T03:20:52;4.78;;;3.30;;
72891;SDS011;61032;50.782;6.818;2023-05-01T03:21:58;3.75;;;2.65;;
72891;SDS011;61032;50.782;6.818;2023-05-01T03:22:59;6.50;;;2.80;;
72891;SDS011;61032;50.782;6.818;2023-05-01T03:24:00;3.72;;;3.08;;
72891;SDS011;61032;50.782;6.818;2023-05-01T03:25:00;4.55;;;3.05;;
72891;SDS011;61032;50.782;6.818;2023-05-01T03:26:00;3.75;;;3.10;;
72891;SDS011;61032;50.782;6.818;2023-05-01T03:27:01;4.63;;;2.80;;
72891;SDS011;61032;50.782;6.818;2023-05-01T03:28:01;5.43;;;2.95;;
72891;SDS011;61032;50.782;6.818;2023-05-01T03:29:01;3.53;;;2.72;;
72891;SDS011;61032;50.782;6.818;2023-05-01T03:30:02;6.00;;;2.58;;
72891;SDS011;61032;50.782;6.818;2023-05-01T03:31:03;3.63;;;2.90;;
72891;SDS011;61032;50.782;6.818;2023-05-01T03:32:04;3.88;;;2.70;;
72891;SDS011;61032;50.782;6.818;2023-05-01T03:33:04;6.18;;;2.95;;
72891;SDS011;61032;50.782;6.818;2023-05-01T03:34:05;6.68;;;3.10;;
72891;SDS011;61032;50.782;6.818;2023-05-01T03:35:05;4.90;;;2.67;;
72891;SDS011;61032;50.782;6.818;2023-05-01T03:36:06;3.60;;;2.72;;
72891;SDS011;61032;50.782;6.818;2023-05-01T03:37:10;6.10;;;3.22;;
72891;SDS011;61032;50.782;6.818;2023-05-01T03:38:11;3.70;;;2.90;;
72891;SDS011;61032;50.782;6.818;2023-05-01T03:39:11;3.72;;;2.83;;
72891;SDS011;61032;50.782;6.818;2023-05-01T03:40:11;4.70;;;3.30;;
72891;SDS011;61032;50.782;6.818;2023-05-01T03:41:12;5.32;;;3.05;;
72891;SDS011;61032;50.782;6.818;2023-05-01T03:42:13;5.78;;;2.67;;
72891;SDS011;61032;50.782;6.818;2023-05-01T03:43:13;3.92;;;2.72;;
72891;SDS011;61032;50.782;6.818;2023-05-01T03:44:13;4.22;;;2.90;;
72891;SDS011;61032;50.782;6.818;2023-05-01T03:45:13;3.20;;;2.42;;
72891;SDS011;61032;50.782;6.818;2023-05-01T03:46:14;5.50;;;3.20;;
72891;SDS011;61032;50.782;6.818;2023-05-01T03:47:14;4.63;;;2.92;;
72891;SDS011;61032;50.782;6.818;2023-05-01T03:48:15;5.38;;;3.42;;
72891;SDS011;61032;50.782;6.818;2023-05-01T03:49:16;5.25;;;2.88;;
72891;SDS011;61032;50.782;6.818;2023-05-01T03:50:16;6.32;;;3.00;;
72891;SDS011;61032;50.782;6.818;2023-05-01T03:51:16;4.80;;;2.90;;
72891;SDS011;61032;50.782;6.818;2023-05-01T03:52:17;6.53;;;3.53;;
72891;SDS011;61032;50.782;6.818;2023-05-01T03:53:17;3.50;;;2.50;;
72891;SDS011;61032;50.782;6.818;2023-05-01T03:54:17;5.15;;;3.13;;
72891;SDS011;61032;50.782;6.818;2023-05-01T03:55:18;4.80;;;2.88;;
72891;SDS011;61032;50.782;6.818;2023-05-01T03:56:18;4.57;;;2.90;;
72891;SDS011;61032;50.782;6.818;2023-05-01T03:57:19;5.65;;;2.63;;
72891;SDS011;61032;50.782;6.818;2023-05-01T03:58:28;3.22;;;2.90;;
72891;SDS011;61032;50.782;6.818;2023-05-01T03:59:28;3.65;;;2.88;;
72891;SDS011;61032;50.782;6.818;2023-05-01T04:00:29;3.70;;;2.80;;
72891;SDS011;61032;50.782;6.818;2023-05-01T04:02:32;3.17;;;2.40;;
72891;SDS011;61032;50.782;6.818;2023-05-01T04:03:32;4.30;;;2.90;;
72891;SDS011;61032;50.782;6.818;2023-05-01T04:04:33;3.65;;;3.15;;
72891;SDS011;61032;50.782;6.818;2023-05-01T04:05:33;7.28;;;3.00;;
72891;SDS011;61032;50.782;6.818;2023-05-01T04:06:34;5.47;;;3.45;;
72891;SDS011;61032;50.782;6.818;2023-05-01T04:07:36;4.70;;;2.70;;
72891;SDS011;61032;50.782;6.818;2023-05-01T04:08:36;4.70;;;2.72;;
72891;SDS011;61032;50.782;6.818;2023-05-01T04:09:37;5.18;;;2.92;;
72891;SDS011;61032;50.782;6.818;2023-05-01T04:10:37;3.10;;;2.55;;
72891;SDS011;61032;50.782;6.818;2023-05-01T04:11:37;3.53;;;2.85;;
72891;SDS011;61032;50.782;6.818;2023-05-01T04:12:37;3.70;;;2.85;;
72891;SDS011;61032;50.782;6.818;2023-05-01T04:13:38;3.50;;;2.40;;
72891;SDS011;61032;50.782;6.818;2023-05-01T04:14:38;4.18;;;2.75;;
72891;SDS011;61032;50.782;6.818;2023-05-01T04:15:38;4.90;;;2.65;;
72891;SDS011;61032;50.782;6.818;2023-05-01T04:16:42;4.60;;;2.88;;
72891;SDS011;61032;50.782;6.818;2023-05-01T04:17:43;4.95;;;3.13;;
72891;SDS011;61032;50.782;6.818;2023-05-01T04:18:43;5.55;;;3.15;;
72891;SDS011;61032;50.782;6.818;2023-05-01T04:19:44;4.57;;;3.03;;
72891;SDS011;61032;50.782;6.818;2023-05-01T04:20:46;4.13;;;2.70;;
72891;SDS011;61032;50.782;6.818;2023-05-01T04:21:46;2.97;;;2.67;;
72891;SDS011;61032;50.782;6.818;2023-05-01T04:22:47;3.97;;;2.78;;
72891;SDS011;61032;50.782;6.818;2023-05-01T04:23:47;2.65;;;2.38;;
72891;SDS011;61032;50.782;6.818;2023-05-01T04:24:48;3.70;;;3.17;;
72891;SDS011;61032;50.782;6.818;2023-05-01T04:25:48;5.60;;;2.80;;
72891;SDS011;61032;50.782;6.818;2023-05-01T04:26:48;4.03;;;2.65;;
72891;SDS011;61032;50.782;6.818;2023-05-01T04:27:49;4.57;;;2.90;;
72891;SDS011;61032;50.782;6.818;2023-05-01T04:28:49;4.57;;;2.90;;
72891;SDS011;61032;50.782;6.818;2023-05-01T04:29:50;4.30;;;2.70;;
72891;SDS011;61032;50.782;6.818;2023-05-01T04:30:50;3.72;;;3.05;;
72891;SDS011;61032;50.782;6.818;2023-05-01T04:31:51;3.83;;;2.72;;
72891;SDS011;61032;50.782;6.818;2023-05-01T04:32:51;4.22;;;3.00;;
72891;SDS011;61032;50.782;6.818;2023-05-01T04:33:51;3.63;;;2.83;;
72891;SDS011;61032;50.782;6.818;2023-05-01T04:34:51;5.35;;;2.30;;
72891;SDS011;61032;50.782;6.818;2023-05-01T04:35:52;3.55;;;2.53;;
72891;SDS011;61032;50.782;6.818;2023-05-01T04:36:52;4.38;;;3.13;;
72891;SDS011;61032;50.782;6.818;2023-05-01T04:37:53;3.28;;;2.47;;
72891;SDS011;61032;50.782;6.818;2023-05-01T04:38:53;5.82;;;3.08;;
72891;SDS011;61032;50.782;6.818;2023-05-01T04:39:54;3.95;;;2.50;;
72891;SDS011;61032;50.782;6.818;2023-05-01T04:40:54;4.45;;;2.92;;
72891;SDS011;61032;50.782;6.818;2023-05-01T04:41:55;3.33;;;2.75;;
72891;SDS011;61032;50.782;6.818;2023-05-01T04:42:55;4.32;;;3.13;;
72891;SDS011;61032;50.782;6.818;2023-05-01T04:43:55;4.03;;;2.83;;
72891;SDS011;61032;50.782;6.818;2023-05-01T04:44:56;3.80;;;2.83;;
72891;SDS011;61032;50.782;6.818;2023-05-01T04:45:56;3.65;;;2.80;;
72891;SDS011;61032;50.782;6.818;2023-05-01T04:46:56;3.67;;;2.50;;
72891;SDS011;61032;50.782;6.818;2023-05-01T04:47:57;4.07;;;2.60;;
72891;SDS011;61032;50.782;6.818;2023-05-01T04:48:57;5.20;;;2.90;;
72891;SDS011;61032;50.782;6.818;2023-05-01T04:49:57;3.15;;;2.42;;
72891;SDS011;61032;50.782;6.818;2023-05-01T04:50:58;4.93;;;3.25;;
72891;SDS011;61032;50.782;6.818;2023-05-01T04:51:58;7.80;;;2.72;;
72891;SDS011;61032;50.782;6.818;2023-05-01T04:52:58;3.97;;;2.88;;
72891;SDS011;61032;50.782;6.818;2023-05-01T04:53:59;4.78;;;3.20;;
72891;SDS011;61032;50.782;6.818;2023-05-01T04:54:59;5.57;;;3.03;;
72891;SDS011;61032;50.782;6.818;2023-05-01T04:55:59;4.95;;;3.22;;
72891;SDS011;61032;50.782;6.818;2023-05-01T04:57:00;5.20;;;3.05;;
72891;SDS011;61032;50.782;6.818;2023-05-01T04:58:00;4.18;;;2.83;;
72891;SDS011;61032;50.782;6.818;2023-05-01T04:59:02;4.28;;;3.10;;
72891;SDS011;61032;50.782;6.818;2023-05-01T05:00:03;4.85;;;3.28;;
72891;SDS011;61032;50.782;6.818;2023-05-01T05:01:04;6.28;;;3.30;;
72891;SDS011;61032;50.782;6.818;2023-05-01T05:02:04;4.40;;;3.60;;
72891;SDS011;61032;50.782;6.818;2023-05-01T05:03:05;3.85;;;2.95;;
72891;SDS011;61032;50.782;6.818;2023-05-01T05:04:05;4.30;;;3.20;;
72891;SDS011;61032;50.782;6.818;2023-05-01T05:05:06;6.30;;;3.15;;
72891;SDS011;61032;50.782;6.818;2023-05-01T05:06:07;4.60;;;3.45;;
72891;SDS011;61032;50.782;6.818;2023-05-01T05:07:07;5.68;;;3.30;;
72891;SDS011;61032;50.782;6.818;2023-05-01T05:08:08;5.18;;;2.85;;
72891;SDS011;61032;50.782;6.818;2023-05-01T05:09:09;4.20;;;2.83;;
72891;SDS011;61032;50.782;6.818;2023-05-01T05:10:10;3.67;;;2.90;;
72891;SDS011;61032;50.782;6.818;2023-05-01T05:11:10;4.10;;;3.50;;
72891;SDS011;61032;50.782;6.818;2023-05-01T05:12:10;5.35;;;2.80;;
72891;SDS011;61032;50.782;6.818;2023-05-01T05:13:11;5.43;;;2.70;;
72891;SDS011;61032;50.782;6.818;2023-05-01T05:14:11;3.15;;;2.80;;
72891;SDS011;61032;50.782;6.818;2023-05-01T05:15:12;4.13;;;3.20;;
72891;SDS011;61032;50.782;6.818;2023-05-01T05:16:12;3.92;;;2.63;;
72891;SDS011;61032;50.782;6.818;2023-05-01T05:17:13;6.22;;;2.85;;
72891;SDS011;61032;50.782;6.818;2023-05-01T05:18:13;2.88;;;2.53;;
72891;SDS011;61032;50.782;6.818;2023-05-01T05:19:13;4.80;;;2.47;;
72891;SDS011;61032;50.782;6.818;2023-05-01T05:20:14;3.72;;;3.00;;
72891;SDS011;61032;50.782;6.818;2023-05-01T05:21:14;4.75;;;3.33;;
72891;SDS011;61032;50.782;6.818;2023-05-01T05:22:14;4.88;;;3.20;;
72891;SDS011;61032;50.782;6.818;2023-05-01T05:23:15;3.97;;;2.95;;
72891;SDS011;61032;50.782;6.818;2023-05-01T05:24:15;5.25;;;3.00;;
72891;SDS011;61032;50.782;6.818;2023-05-01T05:25:16;4.05;;;2.80;;
72891;SDS011;61032;50.782;6.818;2023-05-01T05:26:16;4.18;;;3.10;;
72891;SDS011;61032;50.782;6.818;2023-05-01T05:27:17;4.60;;;3.60;;
72891;SDS011;61032;50.782;6.818;2023-05-01T05:28:17;5.55;;;3.08;;
72891;SDS011;61032;50.782;6.818;2023-05-01T05:29:17;4.18;;;3.05;;
72891;SDS011;61032;50.782;6.818;2023-05-01T05:30:17;2.90;;;2.60;;
72891;SDS011;61032;50.782;6.818;2023-05-01T05:31:18;3.72;;;2.72;;
72891;SDS011;61032;50.782;6.818;2023-05-01T05:32:19;3.92;;;2.75;;
72891;SDS011;61032;50.782;6.818;2023-05-01T05:33:19;3.78;;;2.92;;
72891;SDS011;61032;50.782;6.818;2023-05-01T05:34:19;5.82;;;2.92;;
72891;SDS011;61032;50.782;6.818;2023-05-01T05:35:20;4.45;;;2.88;;
72891;SDS011;61032;50.782;6.818;2023-05-01T05:36:21;3.17;;;2.80;;
72891;SDS011;61032;50.782;6.818;2023-05-01T05:37:21;3.95;;;2.50;;
72891;SDS011;61032;50.782;6.818;2023-05-01T05:38:23;3.95;;;3.20;;
72891;SDS011;61032;50.782;6.818;2023-05-01T05:39:23;3.35;;;2.13;;
72891;SDS011;61032;50.782;6.818;2023-05-01T05:40:23;3.70;;;2.72;;
72891;SDS011;61032;50.782;6.818;2023-05-01T05:41:23;4.57;;;2.95;;
72891;SDS011;61032;50.782;6.818;2023-05-01T05:42:24;3.45;;;2.60;;
72891;SDS011;61032;50.782;6.818;2023-05-01T05:43:24;3.95;;;2.50;;
72891;SDS011;61032;50.782;6.818;2023-05-01T05:44:24;3.75;;;2.35;;
72891;SDS011;61032;50.782;6.818;2023-05-01T05:45:25;2.85;;;2.30;;
72891;SDS011;61032;50.782;6.818;2023-05-01T05:46:25;3.60;;;2.85;;
72891;SDS011;61032;50.782;6.818;2023-05-01T05:47:25;4.45;;;2.30;;
72891;SDS011;61032;50.782;6.818;2023-05-01T05:48:25;4.05;;;2.50;;
72891;SDS011;61032;50.782;6.818;2023-05-01T05:49:26;3.13;;;2.50;;
72891;SDS011;61032;50.782;6.818;2023-05-01T05:50:26;3.50;;;2.10;;
72891;SDS011;61032;50.782;6.818;2023-05-01T05:51:27;2.75;;;1.70;;
72891;SDS011;61032;50.782;6.818;2023-05-01T05:52:27;3.45;;;2.08;;
72891;SDS011;61032;50.782;6.818;2023-05-01T05:53:27;2.95;;;2.20;;
72891;SDS011;61032;50.782;6.818;2023-05-01T05:54:28;4.03;;;1.95;;
72891;SDS011;61032;50.782;6.818;2023-05-01T05:55:28;3.80;;;2.13;;
72891;SDS011;61032;50.782;6.818;2023-05-01T05:56:28;4.35;;;2.20;;
72891;SDS011;61032;50.782;6.818;2023-05-01T05:57:29;3.38;;;2.10;;
72891;SDS011;61032;50.782;6.818;2023-05-01T05:58:29;2.78;;;1.98;;
72891;SDS011;61032;50.782;6.818;2023-05-01T05:59:29;3.25;;;2.30;;
72891;SDS011;61032;50.782;6.818;2023-05-01T06:00:30;4.72;;;2.03;;
72891;SDS011;61032;50.782;6.818;2023-05-01T06:01:30;4.50;;;2.33;;
72891;SDS011;61032;50.782;6.818;2023-05-01T06:02:31;3.83;;;2.35;;
72891;SDS011;61032;50.782;6.818;2023-05-01T06:03:31;3.75;;;2.20;;
72891;SDS011;61032;50.782;6.818;2023-05-01T06:04:31;3.08;;;2.28;;
72891;SDS011;61032;50.782;6.818;2023-05-01T06:05:32;3.88;;;2.05;;
72891;SDS011;61032;50.782;6.818;2023-05-01T06:06:33;3.03;;;1.90;;
72891;SDS011;61032;50.782;6.818;2023-05-01T06:07:33;3.47;;;2.10;;
72891;SDS011;61032;50.782;6.818;2023-05-01T06:08:33;2.80;;;1.73;;
72891;SDS011;61032;50.782;6.818;2023-05-01T06:09:35;3.55;;;1.92;;
72891;SDS011;61032;50.782;6.818;2023-05-01T06:10:36;2.72;;;2.13;;
72891;SDS011;61032;50.782;6.818;2023-05-01T06:11:38;3.63;;;1.80;;
72891;SDS011;61032;50.782;6.818;2023-05-01T06:12:39;2.17;;;1.58;;
72891;SDS011;61032;50.782;6.818;2023-05-01T06:13:40;3.33;;;1.60;;
72891;SDS011;61032;50.782;6.818;2023-05-01T06:14:40;2.22;;;1.35;;
72891;SDS011;61032;50.782;6.818;2023-05-01T06:15:40;2.90;;;1.73;;
72891;SDS011;61032;50.782;6.818;2023-05-01T06:16:41;2.55;;;1.83;;
72891;SDS011;61032;50.782;6.818;2023-05-01T06:17:42;2.72;;;1.83;;
72891;SDS011;61032;50.782;6.818;2023-05-01T06:18:42;3.30;;;1.75;;
72891;SDS011;61032;50.782;6.818;2023-05-01T06:19:42;2.38;;;1.70;;
72891;SDS011;61032;50.782;6.818;2023-05-01T06:20:43;3.13;;;1.83;;
72891;SDS011;61032;50.782;6.818;2023-05-01T06:21:43;3.78;;;1.92;;
72891;SDS011;61032;50.782;6.818;2023-05-01T06:22:43;2.00;;;1.45;;
72891;SDS011;61032;50.782;6.818;2023-05-01T06:23:43;2.83;;;1.40;;
72891;SDS011;61032;50.782;6.818;2023-05-01T06:24:44;5.28;;;1.58;;
72891;SDS011;61032;50.782;6.818;2023-05-01T06:25:44;4.70;;;1.45;;
72891;SDS011;61032;50.782;6.818;2023-05-01T06:26:44;1.95;;;1.70;;
72891;SDS011;61032;50.782;6.818;2023-05-01T06:27:45;3.40;;;1.30;;
72891;SDS011;61032;50.782;6.818;2023-05-01T06:28:45;3.08;;;1.58;;
72891;SDS011;61032;50.782;6.818;2023-05-01T06:29:45;2.80;;;1.77;;
72891;SDS011;61032;50.782;6.818;2023-05-01T06:30:46;2.65;;;1.60;;
72891;SDS011;61032;50.782;6.818;2023-05-01T06:31:47;1.92;;;1.50;;
72891;SDS011;61032;50.782;6.818;2023-05-01T06:32:47;3.33;;;1.90;;
72891;SDS011;61032;50.782;6.818;2023-05-01T06:33:48;3.47;;;1.55;;